sensor_id;sensor_type;location;lat;lon;timestamp;temperature;humidity
30379;DHT22;17168;49.164;9.060;2023-06-14T00:00:49;18.00;54.20
30379;DHT22;17168;49.164;9.060;2023-06-14T00:03:24;18.10;54.10
30379;DHT22;17168;49.164;9.060;2023-06-14T00:05:58;18.10;54.00
30379;DHT22;17168;49.164;9.060;2023-06-14T00:08:30;18.10;54.00
30379;DHT22;17168;49.164;9.060;2023-06-14T00:11:02;18.10;53.80
30379;DHT22;17168;49.164;9.060;2023-06-14T00:13:34;18.20;53.90
30379;DHT22;17168;49.164;9.060;2023-06-14T00:16:07;18.20;53.70
30379;DHT22;17168;49.164;9.060;2023-06-14T00:18:42;18.20;53.70
30379;DHT22;17168;49.164;9.060;2023-06-14T00:21:14;18.20;53.60
30379;DHT22;17168;49.164;9.060;2023-06-14T00:23:47;18.20;53.60
30379;DHT22;17168;49.164;9.060;2023-06-14T00:26:19;18.20;53.50
30379;DHT22;17168;49.164;9.060;2023-06-14T00:28:51;18.20;53.60
30379;DHT22;17168;49.164;9.060;2023-06-14T00:31:23;18.20;53.60
30379;DHT22;17168;49.164;9.060;2023-06-14T00:33:59;18.20;53.60
30379;DHT22;17168;49.164;9.060;2023-06-14T00:36:31;18.20;53.60
30379;DHT22;17168;49.164;9.060;2023-06-14T00:39:03;18.20;53.60
30379;DHT22;17168;49.164;9.060;2023-06-14T00:41:35;18.20;53.70
30379;DHT22;17168;49.164;9.060;2023-06-14T00:44:08;18.20;53.70
30379;DHT22;17168;49.164;9.060;2023-06-14T00:46:40;18.20;53.70
30379;DHT22;17168;49.164;9.060;2023-06-14T00:49:15;18.20;53.90
30379;DHT22;17168;49.164;9.060;2023-06-14T00:51:49;18.10;53.90
30379;DHT22;17168;49.164;9.060;2023-06-14T00:54:22;18.10;54.00
30379;DHT22;17168;49.164;9.060;2023-06-14T00:56:54;18.10;54.10
30379;DHT22;17168;49.164;9.060;2023-06-14T00:59:26;18.00;54.00
30379;DHT22;17168;49.164;9.060;2023-06-14T01:01:59;18.00;54.10
30379;DHT22;17168;49.164;9.060;2023-06-14T01:04:34;18.00;54.20
30379;DHT22;17168;49.164;9.060;2023-06-14T01:07:12;18.00;54.30
30379;DHT22;17168;49.164;9.060;2023-06-14T01:09:57;18.00;54.40
30379;DHT22;17168;49.164;9.060;2023-06-14T01:12:36;17.90;54.70
30379;DHT22;17168;49.164;9.060;2023-06-14T01:15:12;17.90;55.00
30379;DHT22;17168;49.164;9.060;2023-06-14T01:17:45;17.80;55.20
30379;DHT22;17168;49.164;9.060;2023-06-14T01:20:22;17.80;55.50
30379;DHT22;17168;49.164;9.060;2023-06-14T01:22:57;17.70;55.70
30379;DHT22;17168;49.164;9.060;2023-06-14T01:25:30;17.60;56.00
30379;DHT22;17168;49.164;9.060;2023-06-14T01:28:04;17.30;55.60
30379;DHT22;17168;49.164;9.060;2023-06-14T01:30:44;17.40;56.10
30379;DHT22;17168;49.164;9.060;2023-06-14T01:33:19;17.40;56.10
30379;DHT22;17168;49.164;9.060;2023-06-14T01:35:52;17.30;56.10
30379;DHT22;17168;49.164;9.060;2023-06-14T01:38:28;17.30;56.30
30379;DHT22;17168;49.164;9.060;2023-06-14T01:41:00;17.20;56.40
30379;DHT22;17168;49.164;9.060;2023-06-14T01:43:34;17.20;56.50
30379;DHT22;17168;49.164;9.060;2023-06-14T01:46:08;17.10;56.60
30379;DHT22;17168;49.164;9.060;2023-06-14T01:48:42;17.10;56.60
30379;DHT22;17168;49.164;9.060;2023-06-14T01:51:14;17.10;56.70
30379;DHT22;17168;49.164;9.060;2023-06-14T01:53:49;17.10;57.00
30379;DHT22;17168;49.164;9.060;2023-06-14T01:56:21;17.10;57.30
30379;DHT22;17168;49.164;9.060;2023-06-14T01:58:53;17.00;57.70
30379;DHT22;17168;49.164;9.060;2023-06-14T02:01:26;16.90;57.90
30379;DHT22;17168;49.164;9.060;2023-06-14T02:03:58;16.80;58.00
30379;DHT22;17168;49.164;9.060;2023-06-14T02:06:31;16.80;58.10
30379;DHT22;17168;49.164;9.060;2023-06-14T02:09:06;16.80;58.30
30379;DHT22;17168;49.164;9.060;2023-06-14T02:11:38;16.60;58.20
30379;DHT22;17168;49.164;9.060;2023-06-14T02:14:10;16.60;58.50
30379;DHT22;17168;49.164;9.060;2023-06-14T02:16:43;16.60;58.60
30379;DHT22;17168;49.164;9.060;2023-06-14T02:19:21;16.50;58.60
30379;DHT22;17168;49.164;9.060;2023-06-14T02:21:53;16.50;58.80
30379;DHT22;17168;49.164;9.060;2023-06-14T02:24:28;16.40;58.80
30379;DHT22;17168;49.164;9.060;2023-06-14T02:27:00;16.40;59.00
30379;DHT22;17168;49.164;9.060;2023-06-14T02:29:32;16.30;59.00
30379;DHT22;17168;49.164;9.060;2023-06-14T02:32:06;16.30;59.10
30379;DHT22;17168;49.164;9.060;2023-06-14T02:34:39;16.30;59.30
30379;DHT22;17168;49.164;9.060;2023-06-14T02:37:13;16.20;59.50
30379;DHT22;17168;49.164;9.060;2023-06-14T02:39:48;16.20;59.70
30379;DHT22;17168;49.164;9.060;2023-06-14T02:42:20;16.10;59.80
30379;DHT22;17168;49.164;9.060;2023-06-14T02:44:52;16.10;59.90
30379;DHT22;17168;49.164;9.060;2023-06-14T02:47:24;16.00;60.00
30379;DHT22;17168;49.164;9.060;2023-06-14T02:49:57;16.00;59.90
30379;DHT22;17168;49.164;9.060;2023-06-14T02:52:30;16.00;60.10
30379;DHT22;17168;49.164;9.060;2023-06-14T02:55:06;15.90;60.40
30379;DHT22;17168;49.164;9.060;2023-06-14T02:57:38;15.90;60.40
30379;DHT22;17168;49.164;9.060;2023-06-14T03:00:11;15.80;60.40
30379;DHT22;17168;49.164;9.060;2023-06-14T03:02:46;15.80;60.60
30379;DHT22;17168;49.164;9.060;2023-06-14T03:05:18;15.80;60.60
30379;DHT22;17168;49.164;9.060;2023-06-14T03:07:53;15.80;60.70
30379;DHT22;17168;49.164;9.060;2023-06-14T03:10:28;15.80;60.70
30379;DHT22;17168;49.164;9.060;2023-06-14T03:13:01;15.80;60.80
30379;DHT22;17168;49.164;9.060;2023-06-14T03:15:33;15.80;60.80
30379;DHT22;17168;49.164;9.060;2023-06-14T03:18:05;15.80;61.00
30379;DHT22;17168;49.164;9.060;2023-06-14T03:20:40;15.70;61.00
30379;DHT22;17168;49.164;9.060;2023-06-14T03:23:13;15.70;60.90
30379;DHT22;17168;49.164;9.060;2023-06-14T03:25:47;15.70;60.90
30379;DHT22;17168;49.164;9.060;2023-06-14T03:28:20;15.70;61.00
30379;DHT22;17168;49.164;9.060;2023-06-14T03:30:52;15.70;61.00
30379;DHT22;17168;49.164;9.060;2023-06-14T03:33:24;15.70;61.20
30379;DHT22;17168;49.164;9.060;2023-06-14T03:35:57;15.70;61.20
30379;DHT22;17168;49.164;9.060;2023-06-14T03:38:30;15.70;61.30
30379;DHT22;17168;49.164;9.060;2023-06-14T03:41:05;15.60;61.30
30379;DHT22;17168;49.164;9.060;2023-06-14T03:43:37;15.60;61.40
30379;DHT22;17168;49.164;9.060;2023-06-14T03:46:10;15.60;61.40
30379;DHT22;17168;49.164;9.060;2023-06-14T03:48:42;15.60;61.50
30379;DHT22;17168;49.164;9.060;2023-06-14T03:51:14;15.60;61.70
30379;DHT22;17168;49.164;9.060;2023-06-14T03:53:47;15.60;61.90
30379;DHT22;17168;49.164;9.060;2023-06-14T03:56:42;15.60;62.40
30379;DHT22;17168;49.164;9.060;2023-06-14T03:59:14;15.60;62.00
30379;DHT22;17168;49.164;9.060;2023-06-14T04:01:47;15.60;62.60
30379;DHT22;17168;49.164;9.060;2023-06-14T04:04:19;15.50;62.90
30379;DHT22;17168;49.164;9.060;2023-06-14T04:06:53;15.50;63.10
30379;DHT22;17168;49.164;9.060;2023-06-14T04:09:25;15.50;63.10
30379;DHT22;17168;49.164;9.060;2023-06-14T04:12:00;15.50;63.30
30379;DHT22;17168;49.164;9.060;2023-06-14T04:14:33;15.50;63.60
30379;DHT22;17168;49.164;9.060;2023-06-14T04:17:05;15.50;63.50
30379;DHT22;17168;49.164;9.060;2023-06-14T04:19:38;15.50;63.50
30379;DHT22;17168;49.164;9.060;2023-06-14T04:22:10;15.50;63.40
30379;DHT22;17168;49.164;9.060;2023-06-14T04:24:43;15.60;63.50
30379;DHT22;17168;49.164;9.060;2023-06-14T04:27:24;15.60;63.50
30379;DHT22;17168;49.164;9.060;2023-06-14T04:29:57;15.70;63.60
30379;DHT22;17168;49.164;9.060;2023-06-14T04:32:31;15.70;63.50
30379;DHT22;17168;49.164;9.060;2023-06-14T04:35:07;15.80;63.50
30379;DHT22;17168;49.164;9.060;2023-06-14T04:37:39;15.80;63.50
30379;DHT22;17168;49.164;9.060;2023-06-14T04:40:15;15.90;63.50
30379;DHT22;17168;49.164;9.060;2023-06-14T04:42:50;15.90;63.40
30379;DHT22;17168;49.164;9.060;2023-06-14T04:45:23;16.00;63.50
30379;DHT22;17168;49.164;9.060;2023-06-14T04:47:55;16.00;63.40
30379;DHT22;17168;49.164;9.060;2023-06-14T04:50:29;16.10;63.30
30379;DHT22;17168;49.164;9.060;2023-06-14T04:53:01;16.10;63.20
30379;DHT22;17168;49.164;9.060;2023-06-14T04:55:34;16.20;63.30
30379;DHT22;17168;49.164;9.060;2023-06-14T04:58:10;16.20;63.30
30379;DHT22;17168;49.164;9.060;2023-06-14T05:00:45;16.30;63.50
30379;DHT22;17168;49.164;9.060;2023-06-14T05:03:17;16.30;63.50
30379;DHT22;17168;49.164;9.060;2023-06-14T05:05:50;16.30;63.60
30379;DHT22;17168;49.164;9.060;2023-06-14T05:08:25;16.40;63.70
30379;DHT22;17168;49.164;9.060;2023-06-14T05:10:58;16.40;63.70
30379;DHT22;17168;49.164;9.060;2023-06-14T05:13:33;16.50;63.60
30379;DHT22;17168;49.164;9.060;2023-06-14T05:16:06;16.50;63.50
30379;DHT22;17168;49.164;9.060;2023-06-14T05:18:38;16.60;63.40
30379;DHT22;17168;49.164;9.060;2023-06-14T05:21:12;16.60;63.20
30379;DHT22;17168;49.164;9.060;2023-06-14T05:23:44;16.70;63.20
30379;DHT22;17168;49.164;9.060;2023-06-14T05:26:18;16.70;63.20
30379;DHT22;17168;49.164;9.060;2023-06-14T05:28:53;16.80;63.20
30379;DHT22;17168;49.164;9.060;2023-06-14T05:31:28;16.80;63.10
30379;DHT22;17168;49.164;9.060;2023-06-14T05:34:00;16.90;63.10
30379;DHT22;17168;49.164;9.060;2023-06-14T05:36:33;16.90;63.10
30379;DHT22;17168;49.164;9.060;2023-06-14T05:39:05;16.90;63.10
30379;DHT22;17168;49.164;9.060;2023-06-14T05:41:39;17.00;63.10
30379;DHT22;17168;49.164;9.060;2023-06-14T05:44:16;17.00;63.10
30379;DHT22;17168;49.164;9.060;2023-06-14T05:46:49;17.00;63.00
30379;DHT22;17168;49.164;9.060;2023-06-14T05:49:22;17.10;63.10
30379;DHT22;17168;49.164;9.060;2023-06-14T05:51:54;17.10;63.00
30379;DHT22;17168;49.164;9.060;2023-06-14T05:54:26;17.20;63.10
30379;DHT22;17168;49.164;9.060;2023-06-14T05:56:59;17.20;63.00
30379;DHT22;17168;49.164;9.060;2023-06-14T05:59:36;17.20;62.90
30379;DHT22;17168;49.164;9.060;2023-06-14T06:02:08;17.30;62.70
30379;DHT22;17168;49.164;9.060;2023-06-14T06:04:40;17.30;62.50
30379;DHT22;17168;49.164;9.060;2023-06-14T06:07:13;17.40;62.50
30379;DHT22;17168;49.164;9.060;2023-06-14T06:09:45;17.40;62.80
30379;DHT22;17168;49.164;9.060;2023-06-14T06:12:17;17.50;62.50
30379;DHT22;17168;49.164;9.060;2023-06-14T06:14:52;17.50;62.40
30379;DHT22;17168;49.164;9.060;2023-06-14T06:17:25;17.60;62.30
30379;DHT22;17168;49.164;9.060;2023-06-14T06:20:07;17.70;62.30
30379;DHT22;17168;49.164;9.060;2023-06-14T06:22:40;17.70;62.20
30379;DHT22;17168;49.164;9.060;2023-06-14T06:25:13;17.80;62.10
30379;DHT22;17168;49.164;9.060;2023-06-14T06:27:47;17.80;62.00
30379;DHT22;17168;49.164;9.060;2023-06-14T06:30:22;17.80;61.80
30379;DHT22;17168;49.164;9.060;2023-06-14T06:32:55;17.90;61.70
30379;DHT22;17168;49.164;9.060;2023-06-14T06:35:30;17.90;61.60
30379;DHT22;17168;49.164;9.060;2023-06-14T06:38:05;18.00;61.50
30379;DHT22;17168;49.164;9.060;2023-06-14T06:40:37;18.00;61.50
30379;DHT22;17168;49.164;9.060;2023-06-14T06:43:09;18.10;61.30
30379;DHT22;17168;49.164;9.060;2023-06-14T06:45:48;18.20;61.30
30379;DHT22;17168;49.164;9.060;2023-06-14T06:48:20;18.20;61.20
30379;DHT22;17168;49.164;9.060;2023-06-14T06:50:52;18.30;61.10
30379;DHT22;17168;49.164;9.060;2023-06-14T06:53:25;18.30;61.20
30379;DHT22;17168;49.164;9.060;2023-06-14T06:56:11;18.40;61.20
30379;DHT22;17168;49.164;9.060;2023-06-14T06:58:43;18.50;61.20
30379;DHT22;17168;49.164;9.060;2023-06-14T07:01:18;18.50;61.10
30379;DHT22;17168;49.164;9.060;2023-06-14T07:03:53;18.60;60.90
30379;DHT22;17168;49.164;9.060;2023-06-14T07:06:26;18.60;60.80
30379;DHT22;17168;49.164;9.060;2023-06-14T07:08:59;18.70;60.70
30379;DHT22;17168;49.164;9.060;2023-06-14T07:11:33;18.70;60.50
30379;DHT22;17168;49.164;9.060;2023-06-14T07:14:06;18.80;60.20
30379;DHT22;17168;49.164;9.060;2023-06-14T07:16:41;18.90;60.00
30379;DHT22;17168;49.164;9.060;2023-06-14T07:19:13;19.00;60.10
30379;DHT22;17168;49.164;9.060;2023-06-14T07:21:45;19.00;60.10
30379;DHT22;17168;49.164;9.060;2023-06-14T07:24:18;19.10;59.40
30379;DHT22;17168;49.164;9.060;2023-06-14T07:26:53;19.20;58.90
30379;DHT22;17168;49.164;9.060;2023-06-14T07:29:25;19.20;58.40
30379;DHT22;17168;49.164;9.060;2023-06-14T07:32:01;19.30;58.40
30379;DHT22;17168;49.164;9.060;2023-06-14T07:34:34;19.40;58.10
30379;DHT22;17168;49.164;9.060;2023-06-14T07:37:06;19.40;58.00
30379;DHT22;17168;49.164;9.060;2023-06-14T07:39:38;19.50;58.00
30379;DHT22;17168;49.164;9.060;2023-06-14T07:42:10;19.60;57.70
30379;DHT22;17168;49.164;9.060;2023-06-14T07:44:43;19.60;57.20
30379;DHT22;17168;49.164;9.060;2023-06-14T07:47:18;19.70;57.30
30379;DHT22;17168;49.164;9.060;2023-06-14T07:49:50;19.80;57.50
30379;DHT22;17168;49.164;9.060;2023-06-14T07:52:22;19.80;56.60
30379;DHT22;17168;49.164;9.060;2023-06-14T07:54:55;19.80;56.50
30379;DHT22;17168;49.164;9.060;2023-06-14T07:57:28;19.90;56.40
30379;DHT22;17168;49.164;9.060;2023-06-14T08:00:00;20.00;56.30
30379;DHT22;17168;49.164;9.060;2023-06-14T08:02:36;20.00;56.20
30379;DHT22;17168;49.164;9.060;2023-06-14T08:05:10;20.10;56.10
30379;DHT22;17168;49.164;9.060;2023-06-14T08:07:43;20.20;56.30
30379;DHT22;17168;49.164;9.060;2023-06-14T08:10:15;20.20;55.90
30379;DHT22;17168;49.164;9.060;2023-06-14T08:12:48;20.30;55.80
30379;DHT22;17168;49.164;9.060;2023-06-14T08:15:24;20.40;55.80
30379;DHT22;17168;49.164;9.060;2023-06-14T08:17:59;20.50;55.80
30379;DHT22;17168;49.164;9.060;2023-06-14T08:20:32;20.50;55.40
30379;DHT22;17168;49.164;9.060;2023-06-14T08:23:07;20.60;54.90
30379;DHT22;17168;49.164;9.060;2023-06-14T08:25:41;20.70;54.80
30379;DHT22;17168;49.164;9.060;2023-06-14T08:28:13;20.80;55.00
30379;DHT22;17168;49.164;9.060;2023-06-14T08:30:45;20.80;54.80
30379;DHT22;17168;49.164;9.060;2023-06-14T08:33:20;20.80;54.30
30379;DHT22;17168;49.164;9.060;2023-06-14T08:35:53;20.90;54.40
30379;DHT22;17168;49.164;9.060;2023-06-14T08:38:25;21.00;54.20
30379;DHT22;17168;49.164;9.060;2023-06-14T08:40:58;21.10;54.00
30379;DHT22;17168;49.164;9.060;2023-06-14T08:43:31;21.20;53.70
30379;DHT22;17168;49.164;9.060;2023-06-14T08:46:04;21.20;53.40
30379;DHT22;17168;49.164;9.060;2023-06-14T08:48:41;21.30;53.20
30379;DHT22;17168;49.164;9.060;2023-06-14T08:51:13;21.30;53.60
30379;DHT22;17168;49.164;9.060;2023-06-14T08:53:52;21.40;53.90
30379;DHT22;17168;49.164;9.060;2023-06-14T08:56:25;21.40;54.00
30379;DHT22;17168;49.164;9.060;2023-06-14T08:59:00;21.50;53.70
30379;DHT22;17168;49.164;9.060;2023-06-14T09:01:48;21.60;53.30
30379;DHT22;17168;49.164;9.060;2023-06-14T09:04:46;21.70;53.10
30379;DHT22;17168;49.164;9.060;2023-06-14T09:07:19;21.70;52.90
30379;DHT22;17168;49.164;9.060;2023-06-14T09:10:05;21.80;53.10
30379;DHT22;17168;49.164;9.060;2023-06-14T09:12:39;21.90;52.90
30379;DHT22;17168;49.164;9.060;2023-06-14T09:15:12;21.90;52.60
30379;DHT22;17168;49.164;9.060;2023-06-14T09:17:46;22.00;52.40
30379;DHT22;17168;49.164;9.060;2023-06-14T09:20:24;22.00;52.40
30379;DHT22;17168;49.164;9.060;2023-06-14T09:22:56;22.10;52.00
30379;DHT22;17168;49.164;9.060;2023-06-14T09:25:50;22.10;51.90
30379;DHT22;17168;49.164;9.060;2023-06-14T09:28:27;22.20;51.80
30379;DHT22;17168;49.164;9.060;2023-06-14T09:31:04;22.20;51.90
30379;DHT22;17168;49.164;9.060;2023-06-14T09:33:37;22.30;51.70
30379;DHT22;17168;49.164;9.060;2023-06-14T09:36:15;22.30;51.70
30379;DHT22;17168;49.164;9.060;2023-06-14T09:38:52;22.40;51.20
30379;DHT22;17168;49.164;9.060;2023-06-14T09:41:31;22.50;51.10
30379;DHT22;17168;49.164;9.060;2023-06-14T09:44:05;22.50;50.60
30379;DHT22;17168;49.164;9.060;2023-06-14T09:46:45;22.60;50.00
30379;DHT22;17168;49.164;9.060;2023-06-14T09:49:18;22.60;49.70
30379;DHT22;17168;49.164;9.060;2023-06-14T09:51:55;22.70;49.90
30379;DHT22;17168;49.164;9.060;2023-06-14T09:54:29;22.70;49.70
30379;DHT22;17168;49.164;9.060;2023-06-14T09:57:03;22.80;49.50
30379;DHT22;17168;49.164;9.060;2023-06-14T09:59:42;22.90;49.70
30379;DHT22;17168;49.164;9.060;2023-06-14T10:02:21;22.90;49.60
30379;DHT22;17168;49.164;9.060;2023-06-14T10:05:02;23.00;49.70
30379;DHT22;17168;49.164;9.060;2023-06-14T10:07:41;23.10;49.20
30379;DHT22;17168;49.164;9.060;2023-06-14T10:10:14;23.20;49.00
30379;DHT22;17168;49.164;9.060;2023-06-14T10:12:47;23.30;48.60
30379;DHT22;17168;49.164;9.060;2023-06-14T10:15:32;23.30;48.50
30379;DHT22;17168;49.164;9.060;2023-06-14T10:18:11;23.40;47.80
30379;DHT22;17168;49.164;9.060;2023-06-14T10:20:58;23.50;47.40
30379;DHT22;17168;49.164;9.060;2023-06-14T10:23:42;23.60;47.20
30379;DHT22;17168;49.164;9.060;2023-06-14T10:26:20;23.60;46.50
30379;DHT22;17168;49.164;9.060;2023-06-14T10:28:59;23.70;45.60
30379;DHT22;17168;49.164;9.060;2023-06-14T10:31:43;23.90;45.60
30379;DHT22;17168;49.164;9.060;2023-06-14T10:34:24;24.00;45.10
30379;DHT22;17168;49.164;9.060;2023-06-14T10:37:01;24.00;44.90
30379;DHT22;17168;49.164;9.060;2023-06-14T10:39:42;24.00;45.00
30379;DHT22;17168;49.164;9.060;2023-06-14T10:42:19;24.10;45.00
30379;DHT22;17168;49.164;9.060;2023-06-14T10:45:02;24.10;45.10
30379;DHT22;17168;49.164;9.060;2023-06-14T10:47:57;24.20;44.90
30379;DHT22;17168;49.164;9.060;2023-06-14T10:50:35;24.20;44.80
30379;DHT22;17168;49.164;9.060;2023-06-14T10:53:22;24.30;44.40
30379;DHT22;17168;49.164;9.060;2023-06-14T10:56:07;24.30;44.60
30379;DHT22;17168;49.164;9.060;2023-06-14T10:58:39;24.40;44.80
30379;DHT22;17168;49.164;9.060;2023-06-14T11:01:17;24.50;44.70
30379;DHT22;17168;49.164;9.060;2023-06-14T11:03:53;24.50;44.90
30379;DHT22;17168;49.164;9.060;2023-06-14T11:06:29;24.60;45.00
30379;DHT22;17168;49.164;9.060;2023-06-14T11:09:26;24.80;44.80
30379;DHT22;17168;49.164;9.060;2023-06-14T11:12:10;24.90;44.60
30379;DHT22;17168;49.164;9.060;2023-06-14T11:14:46;25.10;44.40
30379;DHT22;17168;49.164;9.060;2023-06-14T11:17:20;25.20;43.60
30379;DHT22;17168;49.164;9.060;2023-06-14T11:20:07;25.30;43.00
30379;DHT22;17168;49.164;9.060;2023-06-14T11:22:41;25.30;43.00
30379;DHT22;17168;49.164;9.060;2023-06-14T11:25:14;25.40;42.90
30379;DHT22;17168;49.164;9.060;2023-06-14T11:27:53;25.40;42.60
30379;DHT22;17168;49.164;9.060;2023-06-14T11:30:39;25.50;42.70
30379;DHT22;17168;49.164;9.060;2023-06-14T11:33:18;25.50;42.10
30379;DHT22;17168;49.164;9.060;2023-06-14T11:35:52;25.50;41.50
30379;DHT22;17168;49.164;9.060;2023-06-14T11:38:25;25.60;41.40
30379;DHT22;17168;49.164;9.060;2023-06-14T11:41:09;25.50;41.60
30379;DHT22;17168;49.164;9.060;2023-06-14T11:44:13;25.50;41.20
30379;DHT22;17168;49.164;9.060;2023-06-14T11:47:04;25.60;41.80
30379;DHT22;17168;49.164;9.060;2023-06-14T11:49:41;25.60;42.50
30379;DHT22;17168;49.164;9.060;2023-06-14T11:52:14;25.70;42.40
30379;DHT22;17168;49.164;9.060;2023-06-14T11:54:48;25.80;42.40
30379;DHT22;17168;49.164;9.060;2023-06-14T11:57:35;25.90;42.20
30379;DHT22;17168;49.164;9.060;2023-06-14T12:00:24;26.00;41.80
30379;DHT22;17168;49.164;9.060;2023-06-14T12:03:09;26.30;41.70
30379;DHT22;17168;49.164;9.060;2023-06-14T12:05:41;26.80;41.80
30379;DHT22;17168;49.164;9.060;2023-06-14T12:08:13;27.40;41.10
30379;DHT22;17168;49.164;9.060;2023-06-14T12:10:54;28.20;40.90
30379;DHT22;17168;49.164;9.060;2023-06-14T12:13:27;29.00;40.10
30379;DHT22;17168;49.164;9.060;2023-06-14T12:16:03;29.30;38.90
30379;DHT22;17168;49.164;9.060;2023-06-14T12:18:36;29.60;38.40
30379;DHT22;17168;49.164;9.060;2023-06-14T12:21:09;29.80;38.30
30379;DHT22;17168;49.164;9.060;2023-06-14T12:23:43;30.10;38.00
30379;DHT22;17168;49.164;9.060;2023-06-14T12:26:19;30.60;37.70
30379;DHT22;17168;49.164;9.060;2023-06-14T12:28:54;31.00;37.40
30379;DHT22;17168;49.164;9.060;2023-06-14T12:31:29;31.10;37.00
30379;DHT22;17168;49.164;9.060;2023-06-14T12:34:02;31.20;36.80
30379;DHT22;17168;49.164;9.060;2023-06-14T12:36:35;31.40;36.40
30379;DHT22;17168;49.164;9.060;2023-06-14T12:39:12;31.50;36.40
30379;DHT22;17168;49.164;9.060;2023-06-14T12:41:45;31.60;36.00
30379;DHT22;17168;49.164;9.060;2023-06-14T12:44:17;31.80;36.00
30379;DHT22;17168;49.164;9.060;2023-06-14T12:46:55;32.10;36.20
30379;DHT22;17168;49.164;9.060;2023-06-14T12:49:28;32.60;35.80
30379;DHT22;17168;49.164;9.060;2023-06-14T12:52:00;32.90;35.20
30379;DHT22;17168;49.164;9.060;2023-06-14T12:54:33;32.80;34.80
30379;DHT22;17168;49.164;9.060;2023-06-14T12:57:12;32.60;34.90
30379;DHT22;17168;49.164;9.060;2023-06-14T12:59:44;32.20;34.80
30379;DHT22;17168;49.164;9.060;2023-06-14T13:02:20;32.00;35.00
30379;DHT22;17168;49.164;9.060;2023-06-14T13:04:57;32.00;35.20
30379;DHT22;17168;49.164;9.060;2023-06-14T13:07:30;32.20;35.00
30379;DHT22;17168;49.164;9.060;2023-06-14T13:10:03;32.40;35.00
30379;DHT22;17168;49.164;9.060;2023-06-14T13:12:39;32.80;34.50
30379;DHT22;17168;49.164;9.060;2023-06-14T13:15:14;33.10;34.20
30379;DHT22;17168;49.164;9.060;2023-06-14T13:17:50;33.40;34.10
30379;DHT22;17168;49.164;9.060;2023-06-14T13:26:04;33.70;34.50
30379;DHT22;17168;49.164;9.060;2023-06-14T13:28:36;33.70;34.50
30379;DHT22;17168;49.164;9.060;2023-06-14T13:31:10;33.60;34.30
30379;DHT22;17168;49.164;9.060;2023-06-14T13:33:46;33.20;34.50
30379;DHT22;17168;49.164;9.060;2023-06-14T13:36:18;32.90;34.40
30379;DHT22;17168;49.164;9.060;2023-06-14T13:38:51;32.40;34.50
30379;DHT22;17168;49.164;9.060;2023-06-14T13:41:26;32.10;35.00
30379;DHT22;17168;49.164;9.060;2023-06-14T13:44:04;31.70;35.10
30379;DHT22;17168;49.164;9.060;2023-06-14T13:46:37;31.50;35.50
30379;DHT22;17168;49.164;9.060;2023-06-14T13:49:12;31.60;35.70
30379;DHT22;17168;49.164;9.060;2023-06-14T13:51:44;31.70;35.70
30379;DHT22;17168;49.164;9.060;2023-06-14T13:54:19;31.90;35.90
30379;DHT22;17168;49.164;9.060;2023-06-14T13:56:52;32.30;35.80
30379;DHT22;17168;49.164;9.060;2023-06-14T13:59:25;32.70;35.40
30379;DHT22;17168;49.164;9.060;2023-06-14T14:01:57;33.10;35.10
30379;DHT22;17168;49.164;9.060;2023-06-14T14:04:33;33.20;34.40
30379;DHT22;17168;49.164;9.060;2023-06-14T14:07:06;33.40;34.50
30379;DHT22;17168;49.164;9.060;2023-06-14T14:09:39;33.60;34.60
30379;DHT22;17168;49.164;9.060;2023-06-14T14:12:12;33.80;34.50
30379;DHT22;17168;49.164;9.060;2023-06-14T14:14:44;34.20;34.40
30379;DHT22;17168;49.164;9.060;2023-06-14T14:17:18;34.50;34.20
30379;DHT22;17168;49.164;9.060;2023-06-14T14:19:53;34.90;33.50
30379;DHT22;17168;49.164;9.060;2023-06-14T14:22:25;35.20;33.00
30379;DHT22;17168;49.164;9.060;2023-06-14T14:24:57;35.20;32.70
30379;DHT22;17168;49.164;9.060;2023-06-14T14:27:30;35.10;32.60
30379;DHT22;17168;49.164;9.060;2023-06-14T14:30:03;34.80;32.50
30379;DHT22;17168;49.164;9.060;2023-06-14T14:32:37;34.50;32.80
30379;DHT22;17168;49.164;9.060;2023-06-14T14:35:13;34.20;33.00
30379;DHT22;17168;49.164;9.060;2023-06-14T14:37:45;33.90;33.20
30379;DHT22;17168;49.164;9.060;2023-06-14T14:40:20;33.60;33.40
30379;DHT22;17168;49.164;9.060;2023-06-14T14:42:52;33.40;33.60
30379;DHT22;17168;49.164;9.060;2023-06-14T14:45:27;33.20;33.70
30379;DHT22;17168;49.164;9.060;2023-06-14T14:48:01;33.20;33.80
30379;DHT22;17168;49.164;9.060;2023-06-14T14:50:36;33.30;34.50
30379;DHT22;17168;49.164;9.060;2023-06-14T14:53:10;33.40;33.90
30379;DHT22;17168;49.164;9.060;2023-06-14T14:55:42;33.40;34.00
30379;DHT22;17168;49.164;9.060;2023-06-14T14:58:19;33.60;33.80
30379;DHT22;17168;49.164;9.060;2023-06-14T15:00:52;33.80;33.60
30379;DHT22;17168;49.164;9.060;2023-06-14T15:03:25;34.00;33.50
30379;DHT22;17168;49.164;9.060;2023-06-14T15:06:00;34.10;33.20
30379;DHT22;17168;49.164;9.060;2023-06-14T15:08:35;34.30;33.20
30379;DHT22;17168;49.164;9.060;2023-06-14T15:11:07;34.30;32.80
30379;DHT22;17168;49.164;9.060;2023-06-14T15:13:39;34.30;32.90
30379;DHT22;17168;49.164;9.060;2023-06-14T15:16:12;34.40;33.30
30379;DHT22;17168;49.164;9.060;2023-06-14T15:18:44;34.30;33.30
30379;DHT22;17168;49.164;9.060;2023-06-14T15:21:19;34.10;33.10
30379;DHT22;17168;49.164;9.060;2023-06-14T15:23:51;33.90;33.50
30379;DHT22;17168;49.164;9.060;2023-06-14T15:26:25;33.70;33.70
30379;DHT22;17168;49.164;9.060;2023-06-14T15:28:58;33.60;33.70
30379;DHT22;17168;49.164;9.060;2023-06-14T15:31:30;33.50;33.90
30379;DHT22;17168;49.164;9.060;2023-06-14T15:34:02;33.50;33.90
30379;DHT22;17168;49.164;9.060;2023-06-14T15:36:37;33.50;34.00
30379;DHT22;17168;49.164;9.060;2023-06-14T15:39:09;33.40;33.90
30379;DHT22;17168;49.164;9.060;2023-06-14T15:41:41;33.30;34.00
30379;DHT22;17168;49.164;9.060;2023-06-14T15:44:14;33.30;34.00
30379;DHT22;17168;49.164;9.060;2023-06-14T15:46:46;33.30;34.10
30379;DHT22;17168;49.164;9.060;2023-06-14T15:49:21;33.20;34.00
30379;DHT22;17168;49.164;9.060;2023-06-14T15:51:57;33.20;34.00
30379;DHT22;17168;49.164;9.060;2023-06-14T15:54:29;33.10;34.40
30379;DHT22;17168;49.164;9.060;2023-06-14T15:57:03;33.10;34.40
30379;DHT22;17168;49.164;9.060;2023-06-14T15:59:36;33.00;34.10
30379;DHT22;17168;49.164;9.060;2023-06-14T16:02:12;33.00;34.50
30379;DHT22;17168;49.164;9.060;2023-06-14T16:04:44;33.10;34.40
30379;DHT22;17168;49.164;9.060;2023-06-14T16:07:19;33.10;34.10
30379;DHT22;17168;49.164;9.060;2023-06-14T16:09:54;33.10;33.90
30379;DHT22;17168;49.164;9.060;2023-06-14T16:12:27;33.10;33.50
30379;DHT22;17168;49.164;9.060;2023-06-14T16:14:59;33.00;33.50
30379;DHT22;17168;49.164;9.060;2023-06-14T16:17:31;32.90;33.50
30379;DHT22;17168;49.164;9.060;2023-06-14T16:20:05;32.70;33.70
30379;DHT22;17168;49.164;9.060;2023-06-14T16:22:40;32.50;34.00